createdAt,value
2022-08-26T00:00:32.851Z,18.70
2022-08-26T00:01:32.830Z,24.60
2022-08-26T00:02:32.998Z,20.30
2022-08-26T00:03:32.782Z,21.10
2022-08-26T00:04:33.813Z,24.10
2022-08-26T00:05:32.775Z,22.50
2022-08-26T00:06:32.741Z,23.20
2022-08-26T00:07:32.743Z,21.00
2022-08-26T00:08:32.713Z,19.20
2022-08-26T00:09:32.736Z,18.90
2022-08-26T00:10:32.704Z,25.10
2022-08-26T00:11:32.673Z,22.00
2022-08-26T00:12:37.584Z,20.20
2022-08-26T00:13:33.636Z,20.40
2022-08-26T00:14:32.681Z,19.50
2022-08-26T00:15:32.595Z,24.30
2022-08-26T00:16:32.710Z,20.90
2022-08-26T00:17:32.564Z,19.90
2022-08-26T00:18:38.849Z,18.40
2022-08-26T00:19:33.577Z,21.60
2022-08-26T00:20:32.521Z,21.30
2022-08-26T00:21:32.530Z,19.50
2022-08-26T00:22:32.490Z,18.40
2022-08-26T00:23:32.474Z,19.20
2022-08-26T00:24:32.496Z,20.80
2022-08-26T00:25:32.449Z,20.40
2022-08-26T00:26:32.417Z,19.10
2022-08-26T00:27:32.410Z,22.40
2022-08-26T00:28:32.380Z,23.90
2022-08-26T00:29:32.401Z,22.20
2022-08-26T00:30:33.353Z,20.80
2022-08-26T00:32:04.783Z,20.90
2022-08-26T00:32:32.323Z,23.50
2022-08-26T00:33:32.308Z,22.90
2022-08-26T00:34:32.313Z,19.20
2022-08-26T00:35:32.270Z,16.40
2022-08-26T00:36:32.260Z,21.10
2022-08-26T00:37:32.244Z,21.40
2022-08-26T00:38:32.219Z,19.60
2022-08-26T00:39:32.245Z,18.90
2022-08-26T00:40:32.244Z,21.00
2022-08-26T00:41:32.170Z,23.40
2022-08-26T00:42:32.161Z,18.30
2022-08-26T00:43:32.137Z,19.00
2022-08-26T00:44:33.167Z,22.10
2022-08-26T00:45:32.139Z,20.30
2022-08-26T00:46:32.091Z,20.90
2022-08-26T00:47:32.080Z,21.50
2022-08-26T00:48:32.066Z,19.00
2022-08-26T00:49:32.114Z,23.60
2022-08-26T00:50:32.022Z,22.30
2022-08-26T00:51:32.016Z,18.90
2022-08-26T00:52:31.993Z,20.90
2022-08-26T00:53:31.992Z,22.70
2022-08-26T00:54:31.956Z,16.10
2022-08-26T00:55:37.737Z,21.80
2022-08-26T00:56:32.974Z,20.00
2022-08-26T00:57:31.934Z,24.30
2022-08-26T00:58:31.895Z,20.80
2022-08-26T00:59:32.732Z,17.60
2022-08-26T01:00:31.894Z,19.30
2022-08-26T01:01:31.939Z,20.80
2022-08-26T01:02:31.860Z,19.90
2022-08-26T01:03:31.813Z,24.80
2022-08-26T01:04:31.810Z,22.90
2022-08-26T01:05:31.827Z,22.40
2022-08-26T01:06:31.788Z,20.40
2022-08-26T01:07:31.744Z,18.10
2022-08-26T01:08:31.734Z,21.80
2022-08-26T01:09:31.703Z,19.50
2022-08-26T01:10:31.735Z,18.00
2022-08-26T01:11:31.671Z,17.30
2022-08-26T01:12:31.663Z,20.50
2022-08-26T01:13:31.641Z,18.70
2022-08-26T01:14:31.627Z,18.30
2022-08-26T01:15:32.958Z,16.50
2022-08-26T01:16:31.701Z,20.10
2022-08-26T01:17:31.594Z,21.00
2022-08-26T01:18:31.571Z,21.30
2022-08-26T01:19:31.557Z,21.10
2022-08-26T01:20:31.571Z,19.70
2022-08-26T01:21:31.520Z,19.40
2022-08-26T01:22:31.510Z,22.10
2022-08-26T01:23:31.475Z,17.50
2022-08-26T01:24:31.461Z,22.60
2022-08-26T01:25:31.496Z,19.80
2022-08-26T01:26:31.449Z,20.40
2022-08-26T01:27:32.684Z,17.00
2022-08-26T01:28:31.409Z,21.40
2022-08-26T01:29:31.387Z,19.20
2022-08-26T01:30:31.402Z,24.60
2022-08-26T01:31:31.412Z,20.10
2022-08-26T01:32:31.345Z,22.40
2022-08-26T01:33:31.319Z,22.60
2022-08-26T01:34:32.305Z,19.10
2022-08-26T01:35:31.387Z,23.50
2022-08-26T01:36:31.298Z,19.90
2022-08-26T01:37:31.258Z,18.80
2022-08-26T01:38:31.652Z,21.00
2022-08-26T01:39:31.235Z,20.70
2022-08-26T01:40:31.278Z,16.80
2022-08-26T01:41:31.205Z,20.50
2022-08-26T01:42:31.166Z,22.20
2022-08-26T01:43:31.158Z,18.60
2022-08-26T01:44:31.184Z,20.30
2022-08-26T01:45:31.236Z,17.40
2022-08-26T01:46:31.118Z,19.60
2022-08-26T01:47:31.091Z,20.20
2022-08-26T01:48:31.095Z,23.10
2022-08-26T01:49:31.994Z,20.60
2022-08-26T01:50:31.071Z,20.80
2022-08-26T01:51:31.028Z,18.10
2022-08-26T01:52:31.026Z,17.40
2022-08-26T01:53:31.004Z,23.20
2022-08-26T01:54:30.977Z,24.00
2022-08-26T01:55:33.478Z,20.50
2022-08-26T01:56:33.249Z,19.70
2022-08-26T01:57:31.944Z,23.80
2022-08-26T01:58:30.939Z,22.40
2022-08-26T01:59:30.911Z,21.10
2022-08-26T02:00:30.919Z,24.00
2022-08-26T02:01:30.875Z,19.40
2022-08-26T02:02:30.847Z,20.00
2022-08-26T02:03:30.842Z,23.90
2022-08-26T02:04:30.869Z,16.80
2022-08-26T02:05:30.830Z,21.50
2022-08-26T02:06:30.779Z,23.40
2022-08-26T02:07:30.789Z,20.50
2022-08-26T02:08:30.743Z,21.20
2022-08-26T02:09:30.810Z,23.00
2022-08-26T02:10:30.739Z,16.50
2022-08-26T02:11:30.702Z,24.90
2022-08-26T02:12:30.712Z,18.60
2022-08-26T02:13:30.658Z,17.00
2022-08-26T02:14:30.654Z,22.90
2022-08-26T02:15:30.663Z,20.70
2022-08-26T02:16:30.670Z,23.30
2022-08-26T02:17:30.582Z,17.70
2022-08-26T02:18:30.582Z,18.40
2022-08-26T02:19:30.559Z,23.60
2022-08-26T02:20:30.574Z,21.10
2022-08-26T02:21:30.526Z,17.10
2022-08-26T02:22:30.506Z,21.60
2022-08-26T02:23:30.493Z,21.10
2022-08-26T02:24:30.474Z,19.40
2022-08-26T02:25:30.485Z,18.10
2022-08-26T02:26:30.442Z,18.80
2022-08-26T02:27:32.049Z,18.00
2022-08-26T02:28:30.410Z,20.70
2022-08-26T02:29:30.399Z,19.40
2022-08-26T02:30:30.418Z,20.90
2022-08-26T02:31:30.421Z,20.90
2022-08-26T02:32:30.341Z,20.80
2022-08-26T02:33:30.337Z,18.90
2022-08-26T02:34:31.116Z,24.20
2022-08-26T02:35:30.317Z,20.40
2022-08-26T02:36:30.282Z,21.30
2022-08-26T02:37:30.252Z,20.70
2022-08-26T02:38:30.249Z,19.60
2022-08-26T02:39:30.225Z,18.60
2022-08-26T02:40:30.271Z,20.20
2022-08-26T02:41:30.193Z,20.00
2022-08-26T02:42:30.181Z,25.40
2022-08-26T02:43:32.869Z,21.50
2022-08-26T02:44:30.153Z,18.60
2022-08-26T02:45:30.161Z,22.10
2022-08-26T02:46:30.250Z,21.50
2022-08-26T02:47:30.112Z,23.20
2022-08-26T02:48:30.077Z,23.10
2022-08-26T02:49:30.076Z,25.90
2022-08-26T02:50:30.092Z,20.80
2022-08-26T02:51:30.038Z,19.30
2022-08-26T02:52:30.001Z,22.60
2022-08-26T02:53:31.858Z,23.10
2022-08-26T02:54:29.985Z,20.20
2022-08-26T02:55:29.994Z,21.20
2022-08-26T02:56:29.938Z,24.20
2022-08-26T02:57:29.936Z,17.80
2022-08-26T02:58:29.905Z,21.50
2022-08-26T02:59:29.910Z,23.70
2022-08-26T03:00:29.945Z,22.40
2022-08-26T03:01:29.956Z,24.30
2022-08-26T03:02:29.848Z,21.00
2022-08-26T03:03:29.818Z,25.20
2022-08-26T03:04:29.826Z,24.30
2022-08-26T03:05:29.838Z,22.50
2022-08-26T03:06:29.781Z,21.70
2022-08-26T03:07:29.761Z,24.10
2022-08-26T03:08:29.744Z,20.10
2022-08-26T03:09:29.723Z,19.10
2022-08-26T03:10:29.744Z,22.80
2022-08-26T03:11:33.003Z,23.10
2022-08-26T03:12:30.675Z,21.70
2022-08-26T03:13:29.685Z,22.20
2022-08-26T03:14:29.679Z,22.40
2022-08-26T03:15:29.656Z,21.20
2022-08-26T03:16:32.471Z,24.60
2022-08-26T03:17:29.612Z,20.10
2022-08-26T03:18:29.591Z,19.60
2022-08-26T03:19:29.582Z,24.20
2022-08-26T03:20:29.597Z,23.20
2022-08-26T03:21:29.551Z,24.40
2022-08-26T03:22:29.517Z,22.60
2022-08-26T03:23:29.498Z,21.50
2022-08-26T03:24:29.475Z,23.40
2022-08-26T03:25:29.486Z,19.00
2022-08-26T03:26:29.437Z,23.70
2022-08-26T03:27:29.472Z,20.20
2022-08-26T03:28:29.423Z,20.30
2022-08-26T03:29:29.402Z,25.10
2022-08-26T03:30:29.409Z,20.90
2022-08-26T03:31:29.450Z,18.20
2022-08-26T03:32:29.361Z,23.70
2022-08-26T03:33:29.330Z,20.50
2022-08-26T03:34:29.375Z,26.10
2022-08-26T03:35:29.327Z,24.80
2022-08-26T03:36:29.302Z,21.20
2022-08-26T03:37:29.254Z,17.40
2022-08-26T03:38:29.248Z,26.50
2022-08-26T03:39:31.459Z,24.60
2022-08-26T03:40:29.306Z,20.70
2022-08-26T03:41:29.204Z,21.30
2022-08-26T03:42:29.171Z,19.70
2022-08-26T03:43:29.173Z,20.60
2022-08-26T03:44:29.141Z,23.40
2022-08-26T03:45:29.155Z,18.60
2022-08-26T03:46:29.169Z,19.50
2022-08-26T03:47:29.103Z,18.50
2022-08-26T03:48:29.077Z,23.30
2022-08-26T03:49:29.095Z,21.20
2022-08-26T03:50:29.073Z,21.60
2022-08-26T03:51:29.034Z,21.80
2022-08-26T03:52:29.006Z,25.80
2022-08-26T03:53:28.997Z,19.50
2022-08-26T03:54:28.970Z,21.00
2022-08-26T03:55:29.001Z,24.00
2022-08-26T03:56:28.956Z,21.20
2022-08-26T03:57:28.913Z,23.70
2022-08-26T03:58:29.906Z,24.60
2022-08-26T03:59:28.890Z,22.90
2022-08-26T04:00:28.911Z,24.70
2022-08-26T04:01:28.891Z,22.50
2022-08-26T04:02:28.867Z,21.80
2022-08-26T04:03:28.886Z,26.40
2022-08-26T04:04:28.814Z,21.70
2022-08-26T04:05:28.821Z,23.20
2022-08-26T04:06:28.784Z,22.30
2022-08-26T04:07:28.773Z,22.70
2022-08-26T04:08:28.742Z,19.50
2022-08-26T04:09:28.721Z,21.90
2022-08-26T04:10:29.537Z,23.50
2022-08-26T04:11:28.704Z,25.80
2022-08-26T04:12:28.676Z,20.00
2022-08-26T04:13:28.668Z,24.10
2022-08-26T04:14:28.647Z,19.90
2022-08-26T04:15:28.673Z,23.10
2022-08-26T04:16:28.648Z,29.80
2022-08-26T04:17:28.605Z,27.70
2022-08-26T04:18:33.014Z,23.40
2022-08-26T04:19:30.568Z,25.50
2022-08-26T04:20:28.583Z,24.70
2022-08-26T04:21:28.527Z,25.70
2022-08-26T04:22:28.532Z,25.80
2022-08-26T04:23:28.493Z,20.80
2022-08-26T04:24:28.594Z,20.30
2022-08-26T04:25:28.495Z,24.60
2022-08-26T04:26:28.446Z,21.50
2022-08-26T04:27:28.413Z,22.00
2022-08-26T04:28:28.406Z,26.70
2022-08-26T04:29:28.422Z,25.70
2022-08-26T04:30:28.393Z,20.50
2022-08-26T04:31:28.415Z,25.70
2022-08-26T04:32:28.341Z,18.70
2022-08-26T04:33:33.200Z,23.50
2022-08-26T04:34:29.320Z,26.40
2022-08-26T04:35:28.323Z,26.70
2022-08-26T04:36:28.269Z,22.40
2022-08-26T04:37:28.245Z,24.90
2022-08-26T04:38:28.227Z,26.90
2022-08-26T04:39:28.236Z,23.30
2022-08-26T04:40:28.268Z,27.40
2022-08-26T04:41:28.194Z,19.50
2022-08-26T04:42:28.166Z,25.40
2022-08-26T04:43:28.162Z,23.30
2022-08-26T04:44:28.189Z,26.20
2022-08-26T04:45:28.146Z,24.80
2022-08-26T04:46:28.146Z,20.00
2022-08-26T04:47:31.766Z,20.90
2022-08-26T04:48:29.070Z,22.20
2022-08-26T04:49:28.050Z,25.50
2022-08-26T04:50:29.065Z,26.80
2022-08-26T04:51:28.281Z,23.30
2022-08-26T04:52:28.044Z,21.90
2022-08-26T04:53:28.000Z,23.20
2022-08-26T04:54:27.976Z,26.70
2022-08-26T04:55:38.220Z,23.30
2022-08-26T04:56:28.983Z,23.50
2022-08-26T04:57:27.914Z,24.40
2022-08-26T04:58:27.896Z,24.50
2022-08-26T04:59:27.871Z,19.50
2022-08-26T05:00:27.898Z,26.20
2022-08-26T05:01:27.871Z,22.20
2022-08-26T05:02:27.901Z,24.40
2022-08-26T05:03:30.569Z,20.40
2022-08-26T05:04:27.860Z,25.80
2022-08-26T05:05:27.772Z,19.80
2022-08-26T05:06:27.782Z,22.30
2022-08-26T05:07:28.747Z,23.90
2022-08-26T05:08:27.727Z,21.50
2022-08-26T05:09:27.704Z,18.80
2022-08-26T05:10:28.712Z,21.50
2022-08-26T05:11:27.718Z,20.90
2022-08-26T05:12:27.663Z,17.10
2022-08-26T05:13:27.707Z,18.90
2022-08-26T05:14:27.736Z,19.70
2022-08-26T05:15:27.626Z,20.90
2022-08-26T05:16:27.739Z,21.50
2022-08-26T05:17:27.620Z,20.60
2022-08-26T05:18:27.577Z,22.50
2022-08-26T05:19:27.955Z,23.30
2022-08-26T05:20:27.524Z,27.20
2022-08-26T05:21:27.553Z,21.10
2022-08-26T05:22:27.516Z,22.30
2022-08-26T05:23:27.475Z,19.10
2022-08-26T05:24:27.499Z,20.60
2022-08-26T05:25:27.523Z,21.00
2022-08-26T05:26:27.459Z,21.20
2022-08-26T05:27:27.404Z,24.70
2022-08-26T05:28:27.435Z,20.30
2022-08-26T05:29:27.383Z,17.80
2022-08-26T05:30:27.375Z,22.80
2022-08-26T05:31:27.426Z,21.80
2022-08-26T05:32:27.324Z,26.80
2022-08-26T05:33:27.318Z,20.80
2022-08-26T05:34:30.245Z,21.40
2022-08-26T05:35:27.358Z,22.10
2022-08-26T05:36:27.304Z,18.40
2022-08-26T05:37:27.256Z,18.50
2022-08-26T05:38:30.335Z,21.80
2022-08-26T05:39:27.221Z,22.60
2022-08-26T05:40:27.283Z,21.50
2022-08-26T05:41:27.210Z,20.20
2022-08-26T05:42:28.161Z,24.40
2022-08-26T05:43:27.197Z,25.50
2022-08-26T05:44:27.740Z,24.90
2022-08-26T05:45:27.126Z,24.70
2022-08-26T05:46:27.327Z,22.00
2022-08-26T05:47:27.129Z,21.50
2022-08-26T05:48:27.099Z,23.20
2022-08-26T05:49:27.090Z,24.50
2022-08-26T05:50:27.045Z,21.60
2022-08-26T05:51:27.057Z,25.80
2022-08-26T05:52:27.001Z,21.80
2022-08-26T05:53:27.011Z,25.40
2022-08-26T05:54:27.082Z,22.70
2022-08-26T05:55:26.992Z,19.30
2022-08-26T05:56:27.080Z,22.30
2022-08-26T05:57:26.956Z,22.40
2022-08-26T05:58:26.903Z,22.50
2022-08-26T05:59:26.896Z,19.20
2022-08-26T06:00:26.883Z,23.50
2022-08-26T06:01:26.948Z,23.60
2022-08-26T06:02:26.921Z,23.80
2022-08-26T06:03:26.820Z,20.90
2022-08-26T06:04:28.319Z,23.50
2022-08-26T06:05:26.835Z,26.20
2022-08-26T06:06:27.445Z,22.30
2022-08-26T06:07:26.755Z,19.70
2022-08-26T06:08:26.779Z,22.70
2022-08-26T06:09:26.741Z,18.60
2022-08-26T06:10:32.471Z,20.20
2022-08-26T06:11:28.724Z,19.40
2022-08-26T06:12:26.682Z,23.50
2022-08-26T06:13:26.692Z,23.30
2022-08-26T06:14:26.685Z,19.20
2022-08-26T06:15:26.790Z,18.80
2022-08-26T06:16:26.704Z,24.80
2022-08-26T06:17:26.614Z,20.70
2022-08-26T06:18:26.588Z,17.70
2022-08-26T06:19:32.962Z,24.10
2022-08-26T06:20:27.557Z,17.00
2022-08-26T06:21:26.585Z,22.20
2022-08-26T06:22:26.537Z,21.00
2022-08-26T06:23:26.540Z,21.00
2022-08-26T06:24:27.266Z,20.30
2022-08-26T06:25:26.504Z,19.20
2022-08-26T06:26:26.539Z,20.50
2022-08-26T06:27:30.668Z,17.70
2022-08-26T06:28:28.434Z,23.00
2022-08-26T06:29:26.457Z,21.70
2022-08-26T06:30:26.437Z,21.60
2022-08-26T06:31:26.446Z,23.90
2022-08-26T06:32:26.399Z,15.90
2022-08-26T06:33:26.390Z,21.50
2022-08-26T06:34:29.667Z,21.30
2022-08-26T06:35:26.328Z,18.30
2022-08-26T06:36:26.353Z,18.50
2022-08-26T06:37:26.300Z,20.40
2022-08-26T06:38:26.295Z,21.20
2022-08-26T06:39:26.266Z,22.00
2022-08-26T06:40:26.405Z,18.50
2022-08-26T06:41:26.339Z,16.80
2022-08-26T06:42:26.239Z,18.90
2022-08-26T06:43:26.208Z,20.20
2022-08-26T06:44:26.388Z,20.40
2022-08-26T06:45:26.403Z,19.20
2022-08-26T06:46:26.261Z,18.10
2022-08-26T06:47:26.130Z,20.70
2022-08-26T06:48:26.131Z,20.50
2022-08-26T06:49:27.353Z,20.10
2022-08-26T06:50:26.093Z,18.00
2022-08-26T06:51:26.121Z,19.60
2022-08-26T06:52:26.084Z,20.20
2022-08-26T06:53:26.055Z,22.00
2022-08-26T06:54:26.025Z,16.70
2022-08-26T06:55:26.877Z,15.80
2022-08-26T06:56:26.028Z,16.70
2022-08-26T06:57:25.985Z,15.40
2022-08-26T06:58:26.924Z,19.10
2022-08-26T06:59:25.966Z,16.20
2022-08-26T07:00:25.953Z,20.40
2022-08-26T07:01:26.028Z,17.30
2022-08-26T07:02:28.586Z,18.10
2022-08-26T07:03:26.028Z,23.30
2022-08-26T07:04:27.798Z,17.50
2022-08-26T07:05:25.873Z,16.10
2022-08-26T07:06:25.900Z,20.40
2022-08-26T07:07:25.838Z,16.10
2022-08-26T07:08:25.839Z,16.50
2022-08-26T07:09:25.912Z,16.70
2022-08-26T07:10:25.829Z,18.70
2022-08-26T07:11:25.815Z,17.70
2022-08-26T07:12:25.769Z,15.20
2022-08-26T07:13:30.497Z,14.40
2022-08-26T07:14:26.811Z,15.80
2022-08-26T07:15:27.143Z,15.90
2022-08-26T07:16:26.843Z,16.20
2022-08-26T07:17:25.700Z,14.70
2022-08-26T07:18:25.695Z,18.00
2022-08-26T07:19:30.641Z,15.60
2022-08-26T07:20:26.705Z,17.70
2022-08-26T07:21:25.672Z,15.80
2022-08-26T07:22:25.628Z,17.00
2022-08-26T07:23:25.607Z,18.00
2022-08-26T07:24:28.537Z,18.40
2022-08-26T07:25:25.631Z,17.70
2022-08-26T07:26:25.604Z,13.50
2022-08-26T07:27:25.562Z,17.50
2022-08-26T07:28:25.532Z,14.60
2022-08-26T07:29:25.599Z,15.00
2022-08-26T07:30:25.507Z,18.30
2022-08-26T07:31:25.541Z,14.80
2022-08-26T07:32:25.493Z,19.30
2022-08-26T07:33:25.523Z,17.80
2022-08-26T07:34:25.471Z,15.10
2022-08-26T07:35:25.449Z,15.40
2022-08-26T07:36:25.481Z,16.00
2022-08-26T07:37:25.447Z,15.40
2022-08-26T07:38:25.399Z,16.40
2022-08-26T07:39:25.383Z,12.70
2022-08-26T07:40:25.384Z,13.60
2022-08-26T07:41:25.456Z,13.50
2022-08-26T07:42:25.341Z,16.70
2022-08-26T07:43:25.317Z,14.70
2022-08-26T07:44:25.368Z,17.30
2022-08-26T07:45:25.292Z,17.80
2022-08-26T07:46:27.466Z,17.20
2022-08-26T07:47:26.459Z,17.30
2022-08-26T07:48:25.256Z,17.40
2022-08-26T07:49:25.330Z,18.20
2022-08-26T07:50:49.174Z,14.50
2022-08-26T07:51:26.240Z,15.40
2022-08-26T07:52:26.942Z,19.00
2022-08-26T07:53:26.186Z,18.80
2022-08-26T07:54:27.065Z,18.00
2022-08-26T07:55:25.226Z,18.40
2022-08-26T07:56:25.178Z,16.40
2022-08-26T07:57:25.122Z,18.30
2022-08-26T07:58:25.196Z,15.90
2022-08-26T07:59:25.092Z,16.80
2022-08-26T08:00:25.084Z,18.70
2022-08-26T08:01:25.174Z,15.90
2022-08-26T08:02:25.047Z,14.80
2022-08-26T08:03:25.053Z,15.00
2022-08-26T08:04:26.610Z,15.10
2022-08-26T08:05:27.294Z,14.10
2022-08-26T08:06:27.376Z,14.20
2022-08-26T08:07:38.619Z,13.70
2022-08-26T08:08:26.942Z,15.40
2022-08-26T08:09:25.112Z,15.80
2022-08-26T08:10:25.191Z,15.40
2022-08-26T08:11:24.958Z,10.80
2022-08-26T08:12:24.987Z,10.20
2022-08-26T08:13:24.961Z,12.10
2022-08-26T08:14:25.088Z,10.00
2022-08-26T08:15:24.911Z,10.70
2022-08-26T08:16:24.941Z,11.30
2022-08-26T08:17:24.909Z,11.80
2022-08-26T08:18:24.843Z,11.40
2022-08-26T08:19:36.564Z,11.60
2022-08-26T08:20:25.892Z,10.70
2022-08-26T08:21:24.818Z,8.00
2022-08-26T08:22:25.845Z,9.70
2022-08-26T08:23:24.785Z,10.40
2022-08-26T08:24:24.875Z,9.60
2022-08-26T08:25:24.759Z,11.80
2022-08-26T08:26:24.773Z,11.70
2022-08-26T08:27:24.730Z,12.60
2022-08-26T08:28:24.756Z,15.10
2022-08-26T08:29:24.755Z,16.90
2022-08-26T08:30:24.688Z,12.50
2022-08-26T08:31:52.143Z,12.50
2022-08-26T08:32:26.752Z,15.10
2022-08-26T08:33:24.656Z,11.50
2022-08-26T08:34:24.678Z,11.30
2022-08-26T08:35:24.622Z,10.80
2022-08-26T08:36:24.725Z,12.90
2022-08-26T08:37:24.668Z,10.60
2022-08-26T08:38:24.587Z,12.40
2022-08-26T08:39:24.587Z,15.70
2022-08-26T08:40:24.605Z,10.10
2022-08-26T08:41:24.572Z,11.90
2022-08-26T08:42:24.576Z,10.80
2022-08-26T08:43:24.526Z,14.00
2022-08-26T08:45:25.506Z,12.00
2022-08-26T08:46:24.579Z,8.70
2022-08-26T08:47:24.544Z,12.40
2022-08-26T08:48:27.826Z,13.80
2022-08-26T08:49:24.445Z,14.50
2022-08-26T08:50:24.430Z,11.80
2022-08-26T08:51:24.463Z,12.00
2022-08-26T08:52:24.412Z,10.80
2022-08-26T08:53:24.437Z,13.20
2022-08-26T08:54:24.482Z,17.30
2022-08-26T08:55:24.392Z,15.60
2022-08-26T08:56:24.404Z,16.80
2022-08-26T08:57:24.342Z,13.80
2022-08-26T08:58:24.329Z,15.70
2022-08-26T08:59:24.325Z,17.50
2022-08-26T09:00:30.153Z,20.80
2022-08-26T09:01:25.371Z,16.70
2022-08-26T09:02:24.312Z,18.10
2022-08-26T09:03:24.265Z,14.20
2022-08-26T09:04:24.243Z,17.90
2022-08-26T09:05:24.220Z,11.60
2022-08-26T09:06:24.242Z,16.20
2022-08-26T09:07:24.205Z,16.50
2022-08-26T09:08:24.191Z,16.70
2022-08-26T09:09:24.169Z,15.70
2022-08-26T09:10:24.174Z,19.80
2022-08-26T09:11:24.237Z,14.10
2022-08-26T09:12:29.294Z,15.60
2022-08-26T09:13:26.219Z,12.80
2022-08-26T09:14:24.134Z,12.80
2022-08-26T09:15:25.475Z,12.60
2022-08-26T09:16:25.183Z,12.10
2022-08-26T09:17:24.069Z,13.10
2022-08-26T09:18:24.050Z,12.90
2022-08-26T09:19:24.049Z,18.60
2022-08-26T09:20:24.020Z,12.50
2022-08-26T09:21:24.022Z,12.80
2022-08-26T09:23:25.168Z,13.60
2022-08-26T09:24:24.024Z,11.30
2022-08-26T09:25:23.957Z,9.60
2022-08-26T09:26:26.001Z,10.20
2022-08-26T09:27:24.964Z,13.90
2022-08-26T09:28:23.978Z,11.60
2022-08-26T09:29:24.040Z,11.50
2022-08-26T09:30:23.996Z,11.50
2022-08-26T09:31:23.971Z,12.50
2022-08-26T09:32:23.907Z,13.70
2022-08-26T09:33:23.856Z,8.60
2022-08-26T09:34:23.895Z,15.60
2022-08-26T09:35:23.837Z,12.60
2022-08-26T09:36:24.736Z,13.40
2022-08-26T09:37:24.021Z,9.90
2022-08-26T09:38:23.785Z,13.30
2022-08-26T09:39:23.776Z,9.80
2022-08-26T09:40:23.830Z,11.70
2022-08-26T09:41:23.757Z,12.00
2022-08-26T09:42:23.807Z,10.60
2022-08-26T09:43:23.739Z,8.60
2022-08-26T09:44:24.320Z,9.80
2022-08-26T09:45:23.713Z,12.60
2022-08-26T09:46:23.783Z,9.20
2022-08-26T09:47:23.711Z,10.20
2022-08-26T09:48:23.692Z,9.00
2022-08-26T09:49:23.652Z,11.80
2022-08-26T09:50:23.645Z,11.10
2022-08-26T09:51:24.646Z,10.30
2022-08-26T09:52:23.739Z,13.20
2022-08-26T09:53:25.183Z,10.30
2022-08-26T09:54:24.625Z,9.60
2022-08-26T09:55:24.577Z,10.70
2022-08-26T09:56:23.600Z,8.60
2022-08-26T09:57:23.560Z,10.70
2022-08-26T09:58:23.558Z,9.80
2022-08-26T09:59:23.569Z,12.30
2022-08-26T10:00:23.517Z,11.40
2022-08-26T10:01:23.587Z,10.00
2022-08-26T10:02:23.481Z,10.20
2022-08-26T10:03:23.475Z,9.40
2022-08-26T10:04:23.572Z,10.40
2022-08-26T10:05:23.467Z,7.70
2022-08-26T10:06:23.492Z,9.80
2022-08-26T10:07:23.419Z,10.90
2022-08-26T10:08:23.422Z,9.00
2022-08-26T10:09:23.405Z,12.60
2022-08-26T10:10:23.397Z,10.10
2022-08-26T10:11:23.404Z,9.40
2022-08-26T10:12:23.490Z,10.70
2022-08-26T10:13:23.361Z,9.80
2022-08-26T10:14:23.350Z,9.40
2022-08-26T10:15:23.320Z,10.50
2022-08-26T10:16:23.390Z,10.40
2022-08-26T10:17:23.284Z,9.80
2022-08-26T10:18:23.293Z,9.20
2022-08-26T10:19:23.276Z,10.00
2022-08-26T10:20:24.101Z,7.90
2022-08-26T10:21:23.337Z,8.50
2022-08-26T10:22:23.235Z,9.80
2022-08-26T10:23:23.393Z,9.40
2022-08-26T10:24:23.241Z,12.00
2022-08-26T10:25:23.209Z,10.70
2022-08-26T10:26:23.234Z,10.70
2022-08-26T10:27:23.169Z,11.20
2022-08-26T10:28:23.189Z,10.00
2022-08-26T10:29:23.154Z,10.90
2022-08-26T10:30:23.153Z,8.80
2022-08-26T10:31:23.163Z,8.60
2022-08-26T10:32:23.216Z,8.50
2022-08-26T10:33:23.101Z,8.80
2022-08-26T10:34:23.139Z,9.20
2022-08-26T10:35:23.069Z,8.70
2022-08-26T10:36:23.094Z,9.10
2022-08-26T10:37:23.099Z,8.60
2022-08-26T10:38:23.027Z,8.80
2022-08-26T10:39:23.025Z,9.70
2022-08-26T10:40:23.053Z,13.40
2022-08-26T10:41:23.014Z,9.90
2022-08-26T10:42:23.050Z,10.80
2022-08-26T10:43:23.037Z,9.90
2022-08-26T10:44:22.995Z,10.60
2022-08-26T10:45:22.943Z,7.80
2022-08-26T10:46:22.967Z,10.50
2022-08-26T10:47:22.971Z,9.30
2022-08-26T10:48:22.939Z,13.10
2022-08-26T10:49:22.884Z,11.10
2022-08-26T10:50:22.852Z,11.90
2022-08-26T10:51:22.843Z,8.70
2022-08-26T10:52:22.869Z,9.40
2022-08-26T10:53:24.885Z,11.90
2022-08-26T10:54:22.887Z,10.30
2022-08-26T10:55:22.782Z,11.00
2022-08-26T10:56:22.777Z,8.60
2022-08-26T10:57:22.793Z,9.80
2022-08-26T10:58:26.061Z,7.80
2022-08-26T10:59:22.750Z,11.30
2022-08-26T11:00:22.727Z,10.90
2022-08-26T11:01:23.280Z,11.80
2022-08-26T11:02:25.043Z,10.30
2022-08-26T11:03:23.667Z,10.20
2022-08-26T11:04:22.881Z,9.50
2022-08-26T11:05:22.694Z,10.80
2022-08-26T11:06:22.636Z,10.40
2022-08-26T11:07:22.656Z,9.80
2022-08-26T11:08:22.600Z,8.10
2022-08-26T11:09:22.582Z,9.00
2022-08-26T11:10:23.592Z,10.30
2022-08-26T11:11:22.566Z,10.10
2022-08-26T11:12:22.569Z,8.80
2022-08-26T11:13:22.525Z,13.90
2022-08-26T11:14:28.734Z,9.60
2022-08-26T11:15:24.618Z,10.80
2022-08-26T11:16:22.570Z,11.40
2022-08-26T11:17:22.503Z,11.00
2022-08-26T11:18:22.463Z,13.20
2022-08-26T11:19:22.434Z,10.80
2022-08-26T11:20:22.435Z,11.20
2022-08-26T11:21:22.407Z,10.40
2022-08-26T11:22:23.441Z,11.70
2022-08-26T11:23:22.425Z,12.40
2022-08-26T11:24:22.401Z,14.70
2022-08-26T11:25:25.391Z,12.20
2022-08-26T11:26:35.751Z,11.50
2022-08-26T11:27:23.404Z,9.70
2022-08-26T11:28:22.293Z,9.50
2022-08-26T11:29:22.310Z,10.70
2022-08-26T11:30:22.304Z,14.30
2022-08-26T11:31:22.266Z,11.00
2022-08-26T11:32:22.266Z,12.00
2022-08-26T11:33:22.215Z,11.70
2022-08-26T11:34:22.226Z,11.40
2022-08-26T11:35:22.179Z,10.70
2022-08-26T11:36:22.189Z,13.70
2022-08-26T11:37:22.182Z,13.30
2022-08-26T11:38:22.147Z,9.80
2022-08-26T11:39:22.143Z,12.00
2022-08-26T11:40:22.129Z,10.40
2022-08-26T11:41:22.083Z,10.40
2022-08-26T11:42:22.120Z,11.90
2022-08-26T11:43:22.053Z,10.90
2022-08-26T11:44:22.058Z,10.10
2022-08-26T11:45:22.053Z,10.70
2022-08-26T11:46:22.008Z,12.50
2022-08-26T11:47:22.019Z,10.60
2022-08-26T11:48:21.972Z,9.00
2022-08-26T11:49:22.005Z,12.60
2022-08-26T11:50:21.938Z,13.60
2022-08-26T11:51:21.939Z,10.50
2022-08-26T11:52:22.011Z,10.50
2022-08-26T11:53:21.903Z,9.60
2022-08-26T11:54:29.272Z,9.80
2022-08-26T11:55:23.308Z,11.80
2022-08-26T11:56:21.870Z,11.80
2022-08-26T11:57:21.860Z,12.40
2022-08-26T11:58:21.843Z,12.50
2022-08-26T11:59:21.845Z,13.70
2022-08-26T12:00:22.697Z,9.90
2022-08-26T12:01:21.758Z,12.00
2022-08-26T12:02:21.813Z,12.80
2022-08-26T12:03:21.849Z,12.90
2022-08-26T12:04:21.811Z,11.30
2022-08-26T12:05:21.714Z,13.30
2022-08-26T12:06:21.713Z,11.70
2022-08-26T12:07:23.794Z,12.40
2022-08-26T12:08:21.717Z,13.00
2022-08-26T12:09:21.636Z,12.00
2022-08-26T12:10:21.663Z,10.20
2022-08-26T12:11:21.618Z,11.50
2022-08-26T12:12:21.638Z,11.40
2022-08-26T12:13:21.582Z,13.00
2022-08-26T12:14:21.593Z,12.40
2022-08-26T12:15:21.570Z,12.50
2022-08-26T12:16:21.665Z,10.20
2022-08-26T12:17:22.467Z,13.20
2022-08-26T12:18:28.912Z,11.70
2022-08-26T12:19:22.489Z,11.40
2022-08-26T12:20:21.488Z,11.30
2022-08-26T12:21:21.514Z,15.40
2022-08-26T12:22:21.491Z,16.30
2022-08-26T12:23:21.438Z,14.00
2022-08-26T12:24:21.467Z,14.40
2022-08-26T12:25:21.447Z,14.40
2022-08-26T12:26:21.407Z,13.40
2022-08-26T12:27:21.397Z,12.90
2022-08-26T12:28:21.353Z,13.70
2022-08-26T12:29:27.045Z,17.30
2022-08-26T12:30:22.345Z,15.00
2022-08-26T12:31:21.383Z,13.60
2022-08-26T12:32:21.333Z,13.10
2022-08-26T12:33:23.052Z,10.90
2022-08-26T12:34:21.304Z,13.50
2022-08-26T12:35:21.254Z,15.90
2022-08-26T12:36:21.229Z,16.10
2022-08-26T12:37:21.322Z,14.80
2022-08-26T12:38:21.244Z,13.80
2022-08-26T12:39:21.182Z,14.10
2022-08-26T12:40:21.216Z,15.00
2022-08-26T12:41:21.152Z,17.00
2022-08-26T12:42:21.212Z,16.10
2022-08-26T12:43:21.182Z,15.60
2022-08-26T12:44:21.113Z,14.60
2022-08-26T12:45:21.166Z,19.00
2022-08-26T12:46:21.079Z,16.70
2022-08-26T12:47:25.782Z,15.00
2022-08-26T12:48:24.559Z,17.40
2022-08-26T12:49:21.061Z,20.20
2022-08-26T12:50:21.020Z,16.60
2022-08-26T12:51:21.158Z,17.00
2022-08-26T12:52:20.991Z,19.20
2022-08-26T12:53:21.077Z,25.30
2022-08-26T12:54:21.027Z,21.40
2022-08-26T12:55:20.952Z,18.10
2022-08-26T12:56:20.920Z,19.30